Impacts METAR Board INFO
IDs:

KDCA - Washington/National, VA, US

Updated at: 1136 UTC 23 Jan 2018
Potential Impact None Slight Moderate High
Time22/23Z 23/00Z 23/01Z 23/02Z 23/03Z 23/04Z 23/05Z 23/06Z 23/07Z 23/08Z 23/09Z 23/10Z 23/11Z
VIS10 10 10 10 10 10 10 10 10 10 10 10 5
CIG220 210 220 230 190 190 150 31 17 17 13 11 42
CoverOVCOVCOVCBKNOVCOVCOVCOVCOVCOVCOVCOVCOVC
FltCatVFRVFRVFRVFRVFRVFRVFRVFRMVFRMVFRMVFRMVFRMVFR
WX---------------------RA-RA-RA BR
WDir170160150170170180180180190170180180180
WSpd8 7 7 6 7 9 10 7 6 9 9 12 11
WGst-- -- -- -- -- -- -- -- -- -- -- -- --
Raw hourly METARs
KDCA 222252Z 17008KT 10SM OVC220 14/06 A3002 RMK AO2 SLP167 T01390056
KDCA 222352Z 16007KT 10SM OVC210 14/06 A3002 RMK AO2 SLP165 T01390061 10183 20133 58002
KDCA 230052Z 15007KT 10SM OVC220 13/06 A3000 RMK AO2 SLP160 T01280061
KDCA 230152Z 17006KT 10SM BKN230 12/06 A2998 RMK AO2 SLP153 T01170061
KDCA 230252Z 17007KT 10SM OVC190 11/06 A2999 RMK AO2 PRESFR SLP155 T01060061 55009
KDCA 230352Z 18009KT 10SM OVC190 11/06 A2996 RMK AO2 SLP146 T01060061
KDCA 230452Z 18010KT 10SM BKN150 OVC190 11/06 A2995 RMK AO2 SLP141 T01060061 401830083
KDCA 230552Z 18007KT 10SM BKN031 OVC130 11/07 A2990 RMK AO2 SLP126 T01110067 10144 20100 58029
KDCA 230652Z 19006KT 10SM OVC017 11/07 A2986 RMK AO2 SLP112 T01110072
KDCA 230752Z 17009KT 10SM OVC017 12/08 A2982 RMK AO2 RAB25E38 SLP098 P0000 T01170083
KDCA 230852Z 18009KT 10SM -RA OVC013 12/10 A2980 RMK AO2 RAB28 SLP092 P0000 60000 T01170100 56034
KDCA 230952Z 18012KT 10SM -RA OVC011 12/11 A2975 RMK AO2 SLP074 P0000 T01220111
KDCA 231052Z 18011KT 5SM -RA BR SCT014 BKN042 OVC100 13/12 A2970 RMK AO2 SLP058 P0003 T01280122